sensor_id;sensor_type;location;lat;lon;timestamp;pressure;altitude;pressure_sealevel;temperature;humidity
8059;BME280;75058;42.668;23.396;2024-03-06T00:01:46;94929.28;;;5.27;69.96
8059;BME280;75058;42.668;23.396;2024-03-06T00:04:14;94929.38;;;5.53;68.85
8059;BME280;75058;42.668;23.396;2024-03-06T00:06:45;94929.94;;;5.48;68.20
8059;BME280;75058;42.668;23.396;2024-03-06T00:09:13;94929.06;;;5.28;69.21
8059;BME280;75058;42.668;23.396;2024-03-06T00:11:42;94939.31;;;4.96;70.18
8059;BME280;75058;42.668;23.396;2024-03-06T00:14:10;94939.59;;;5.14;70.04
8059;BME280;75058;42.668;23.396;2024-03-06T00:16:39;94941.69;;;5.38;69.23
8059;BME280;75058;42.668;23.396;2024-03-06T00:19:07;94924.75;;;5.48;68.79
8059;BME280;75058;42.668;23.396;2024-03-06T00:21:35;94931.78;;;5.61;68.53
8059;BME280;75058;42.668;23.396;2024-03-06T00:24:04;94930.97;;;5.67;67.85
8059;BME280;75058;42.668;23.396;2024-03-06T00:26:32;94925.41;;;5.77;67.79
8059;BME280;75058;42.668;23.396;2024-03-06T00:29:02;94924.81;;;5.75;67.76
8059;BME280;75058;42.668;23.396;2024-03-06T00:31:30;94932.00;;;5.73;67.80
8059;BME280;75058;42.668;23.396;2024-03-06T00:33:58;94923.81;;;5.76;67.78
8059;BME280;75058;42.668;23.396;2024-03-06T00:36:25;94927.59;;;5.73;67.35
8059;BME280;75058;42.668;23.396;2024-03-06T00:38:54;94930.19;;;5.80;67.28
8059;BME280;75058;42.668;23.396;2024-03-06T00:41:22;94928.19;;;5.75;67.30
8059;BME280;75058;42.668;23.396;2024-03-06T00:43:50;94931.56;;;5.63;68.06
8059;BME280;75058;42.668;23.396;2024-03-06T00:46:19;94936.97;;;5.61;68.14
8059;BME280;75058;42.668;23.396;2024-03-06T00:48:47;94933.16;;;5.57;68.34
8059;BME280;75058;42.668;23.396;2024-03-06T00:51:15;94931.78;;;5.68;68.28
8059;BME280;75058;42.668;23.396;2024-03-06T00:53:49;94938.94;;;5.53;68.66
8059;BME280;75058;42.668;23.396;2024-03-06T00:56:17;94934.13;;;5.43;68.63
8059;BME280;75058;42.668;23.396;2024-03-06T00:58:45;94932.28;;;5.30;68.87
8059;BME280;75058;42.668;23.396;2024-03-06T01:01:15;94918.34;;;4.91;69.68
8059;BME280;75058;42.668;23.396;2024-03-06T01:03:44;94927.16;;;4.62;70.68
8059;BME280;75058;42.668;23.396;2024-03-06T01:06:12;94940.03;;;4.77;70.34
8059;BME280;75058;42.668;23.396;2024-03-06T01:08:40;94939.75;;;4.65;70.64
8059;BME280;75058;42.668;23.396;2024-03-06T01:11:08;94948.88;;;4.61;70.63
8059;BME280;75058;42.668;23.396;2024-03-06T01:13:41;94941.38;;;4.45;70.76
8059;BME280;75058;42.668;23.396;2024-03-06T01:16:09;94946.00;;;4.49;71.16
8059;BME280;75058;42.668;23.396;2024-03-06T01:18:37;94950.75;;;4.74;70.79
8059;BME280;75058;42.668;23.396;2024-03-06T01:21:06;94949.13;;;4.66;70.10
8059;BME280;75058;42.668;23.396;2024-03-06T01:23:34;94947.06;;;4.55;70.66
8059;BME280;75058;42.668;23.396;2024-03-06T01:26:02;94950.66;;;4.60;70.44
8059;BME280;75058;42.668;23.396;2024-03-06T01:28:30;94948.00;;;4.47;70.85
8059;BME280;75058;42.668;23.396;2024-03-06T01:30:58;94944.63;;;4.47;70.94
8059;BME280;75058;42.668;23.396;2024-03-06T01:33:26;94951.63;;;4.25;71.43
8059;BME280;75058;42.668;23.396;2024-03-06T01:35:54;94940.56;;;4.10;71.80
8059;BME280;75058;42.668;23.396;2024-03-06T01:38:23;94943.63;;;3.99;72.46
8059;BME280;75058;42.668;23.396;2024-03-06T01:40:51;94942.84;;;3.77;72.94
8059;BME280;75058;42.668;23.396;2024-03-06T01:43:20;94936.09;;;3.62;73.15
8059;BME280;75058;42.668;23.396;2024-03-06T01:45:49;94949.25;;;3.81;72.92
8059;BME280;75058;42.668;23.396;2024-03-06T01:48:19;94946.41;;;3.76;73.11
8059;BME280;75058;42.668;23.396;2024-03-06T01:50:48;94946.09;;;3.65;73.43
8059;BME280;75058;42.668;23.396;2024-03-06T01:53:17;94952.94;;;3.72;73.27
8059;BME280;75058;42.668;23.396;2024-03-06T01:55:48;94941.75;;;3.65;73.77
8059;BME280;75058;42.668;23.396;2024-03-06T01:58:16;94939.03;;;3.73;73.29
8059;BME280;75058;42.668;23.396;2024-03-06T02:00:44;94935.75;;;3.65;73.14
8059;BME280;75058;42.668;23.396;2024-03-06T02:03:12;94943.81;;;3.55;73.82
8059;BME280;75058;42.668;23.396;2024-03-06T02:05:40;94927.38;;;3.42;73.78
8059;BME280;75058;42.668;23.396;2024-03-06T02:08:09;94946.09;;;3.44;74.70
8059;BME280;75058;42.668;23.396;2024-03-06T02:10:37;94953.72;;;3.52;74.29
8059;BME280;75058;42.668;23.396;2024-03-06T02:13:07;94955.66;;;3.64;73.74
8059;BME280;75058;42.668;23.396;2024-03-06T02:15:36;94952.44;;;3.62;73.84
8059;BME280;75058;42.668;23.396;2024-03-06T02:18:05;94959.44;;;3.47;74.05
8059;BME280;75058;42.668;23.396;2024-03-06T02:20:34;94964.69;;;3.75;73.48
8059;BME280;75058;42.668;23.396;2024-03-06T02:23:03;94967.00;;;3.84;72.75
8059;BME280;75058;42.668;23.396;2024-03-06T02:25:31;94963.66;;;3.69;73.08
8059;BME280;75058;42.668;23.396;2024-03-06T02:27:59;94970.78;;;3.46;73.16
8059;BME280;75058;42.668;23.396;2024-03-06T02:30:27;94972.56;;;3.46;73.67
8059;BME280;75058;42.668;23.396;2024-03-06T02:32:57;94970.53;;;3.41;74.02
8059;BME280;75058;42.668;23.396;2024-03-06T02:35:25;94968.81;;;3.34;73.69
8059;BME280;75058;42.668;23.396;2024-03-06T02:37:54;94972.75;;;3.30;73.80
8059;BME280;75058;42.668;23.396;2024-03-06T02:40:23;94982.69;;;3.11;74.39
8059;BME280;75058;42.668;23.396;2024-03-06T02:42:51;94977.72;;;3.46;73.79
8059;BME280;75058;42.668;23.396;2024-03-06T02:45:19;94978.91;;;3.43;73.24
8059;BME280;75058;42.668;23.396;2024-03-06T02:47:47;94978.00;;;3.36;72.96
8059;BME280;75058;42.668;23.396;2024-03-06T02:50:15;94977.53;;;2.97;73.84
8059;BME280;75058;42.668;23.396;2024-03-06T02:52:43;94978.25;;;2.76;73.58
8059;BME280;75058;42.668;23.396;2024-03-06T02:55:13;94970.91;;;2.36;74.80
8059;BME280;75058;42.668;23.396;2024-03-06T02:57:41;94969.38;;;2.27;74.80
8059;BME280;75058;42.668;23.396;2024-03-06T03:00:10;94972.16;;;2.40;75.34
8059;BME280;75058;42.668;23.396;2024-03-06T03:02:40;94980.69;;;2.41;75.60
8059;BME280;75058;42.668;23.396;2024-03-06T03:05:08;94972.16;;;2.55;75.70
8059;BME280;75058;42.668;23.396;2024-03-06T03:07:36;94983.59;;;2.75;74.41
8059;BME280;75058;42.668;23.396;2024-03-06T03:10:05;94979.75;;;3.00;73.52
8059;BME280;75058;42.668;23.396;2024-03-06T03:12:35;94979.22;;;2.90;73.52
8059;BME280;75058;42.668;23.396;2024-03-06T03:15:03;94981.38;;;2.86;74.01
8059;BME280;75058;42.668;23.396;2024-03-06T03:17:31;94983.75;;;3.02;72.98
8059;BME280;75058;42.668;23.396;2024-03-06T03:20:00;94984.56;;;2.74;73.04
8059;BME280;75058;42.668;23.396;2024-03-06T03:22:32;94993.31;;;2.87;73.90
8059;BME280;75058;42.668;23.396;2024-03-06T03:25:00;94986.25;;;3.10;73.11
8059;BME280;75058;42.668;23.396;2024-03-06T03:27:28;94985.88;;;3.28;72.22
8059;BME280;75058;42.668;23.396;2024-03-06T03:29:58;94988.97;;;3.53;72.34
8059;BME280;75058;42.668;23.396;2024-03-06T03:32:26;94903.72;;;3.09;71.98
8059;BME280;75058;42.668;23.396;2024-03-06T03:34:54;94995.47;;;3.49;71.43
8059;BME280;75058;42.668;23.396;2024-03-06T03:37:22;94991.31;;;3.69;71.78
8059;BME280;75058;42.668;23.396;2024-03-06T03:39:50;94996.75;;;3.59;71.30
8059;BME280;75058;42.668;23.396;2024-03-06T03:42:18;94931.47;;;3.00;71.92
8059;BME280;75058;42.668;23.396;2024-03-06T03:44:46;95003.34;;;3.26;72.03
8059;BME280;75058;42.668;23.396;2024-03-06T03:47:16;95003.44;;;3.33;71.80
8059;BME280;75058;42.668;23.396;2024-03-06T03:49:44;95002.25;;;3.50;72.11
8059;BME280;75058;42.668;23.396;2024-03-06T03:52:25;95003.88;;;3.22;73.65
8059;BME280;75058;42.668;23.396;2024-03-06T03:54:53;95003.56;;;3.10;72.89
8059;BME280;75058;42.668;23.396;2024-03-06T03:57:21;94997.56;;;3.24;72.82
8059;BME280;75058;42.668;23.396;2024-03-06T03:59:49;95003.56;;;3.10;73.54
8059;BME280;75058;42.668;23.396;2024-03-06T04:02:19;95009.78;;;3.16;73.31
8059;BME280;75058;42.668;23.396;2024-03-06T04:04:47;95006.47;;;3.22;73.10
8059;BME280;75058;42.668;23.396;2024-03-06T04:07:15;95004.66;;;3.37;73.25
8059;BME280;75058;42.668;23.396;2024-03-06T04:09:45;95007.25;;;3.37;73.13
8059;BME280;75058;42.668;23.396;2024-03-06T04:12:14;95013.56;;;3.49;72.83
8059;BME280;75058;42.668;23.396;2024-03-06T04:14:42;95010.34;;;3.47;72.27
8059;BME280;75058;42.668;23.396;2024-03-06T04:17:10;95018.69;;;3.28;72.59
8059;BME280;75058;42.668;23.396;2024-03-06T04:19:39;95018.66;;;3.42;72.03
8059;BME280;75058;42.668;23.396;2024-03-06T04:22:07;95026.88;;;3.46;71.79
8059;BME280;75058;42.668;23.396;2024-03-06T04:24:35;95015.56;;;3.18;72.13
8059;BME280;75058;42.668;23.396;2024-03-06T04:27:03;95027.06;;;3.15;73.02
8059;BME280;75058;42.668;23.396;2024-03-06T04:29:31;95027.84;;;3.45;72.51
8059;BME280;75058;42.668;23.396;2024-03-06T04:31:59;95020.97;;;3.87;71.87
8059;BME280;75058;42.668;23.396;2024-03-06T04:34:27;95031.16;;;3.74;70.94
8059;BME280;75058;42.668;23.396;2024-03-06T04:36:56;95024.97;;;4.11;70.20
8059;BME280;75058;42.668;23.396;2024-03-06T04:39:25;94997.78;;;3.79;69.77
8059;BME280;75058;42.668;23.396;2024-03-06T04:41:52;95029.53;;;4.09;69.77
8059;BME280;75058;42.668;23.396;2024-03-06T04:44:21;95031.03;;;3.97;69.77
8059;BME280;75058;42.668;23.396;2024-03-06T04:46:49;95029.66;;;4.01;70.12
8059;BME280;75058;42.668;23.396;2024-03-06T04:49:18;95037.66;;;3.49;70.25
8059;BME280;75058;42.668;23.396;2024-03-06T04:51:46;95047.91;;;3.43;70.85
8059;BME280;75058;42.668;23.396;2024-03-06T04:54:15;95038.28;;;3.37;71.79
8059;BME280;75058;42.668;23.396;2024-03-06T04:56:43;95041.22;;;3.19;71.78
8059;BME280;75058;42.668;23.396;2024-03-06T04:59:11;95045.53;;;3.27;72.32
8059;BME280;75058;42.668;23.396;2024-03-06T05:01:40;95051.66;;;3.26;71.51
8059;BME280;75058;42.668;23.396;2024-03-06T05:04:08;95054.16;;;3.19;72.51
8059;BME280;75058;42.668;23.396;2024-03-06T05:06:54;95059.13;;;3.06;72.75
8059;BME280;75058;42.668;23.396;2024-03-06T05:09:41;95050.22;;;3.23;72.32
8059;BME280;75058;42.668;23.396;2024-03-06T05:12:27;95052.00;;;3.52;71.35
8059;BME280;75058;42.668;23.396;2024-03-06T05:15:13;95055.47;;;3.59;71.09
8059;BME280;75058;42.668;23.396;2024-03-06T05:17:58;95057.53;;;3.63;71.13
8059;BME280;75058;42.668;23.396;2024-03-06T05:20:44;95052.78;;;3.67;71.09
8059;BME280;75058;42.668;23.396;2024-03-06T05:23:30;95058.25;;;3.93;70.53
8059;BME280;75058;42.668;23.396;2024-03-06T05:26:17;95060.78;;;4.08;69.85
8059;BME280;75058;42.668;23.396;2024-03-06T05:29:02;95062.75;;;3.84;70.14
8059;BME280;75058;42.668;23.396;2024-03-06T05:31:48;95073.75;;;3.43;71.44
8059;BME280;75058;42.668;23.396;2024-03-06T05:34:34;95070.69;;;3.68;71.62
8059;BME280;75058;42.668;23.396;2024-03-06T05:37:19;95069.59;;;4.34;68.94
8059;BME280;75058;42.668;23.396;2024-03-06T05:40:05;95067.38;;;4.74;67.23
8059;BME280;75058;42.668;23.396;2024-03-06T05:42:54;95073.91;;;4.69;66.95
8059;BME280;75058;42.668;23.396;2024-03-06T05:45:39;95059.44;;;4.54;67.41
8059;BME280;75058;42.668;23.396;2024-03-06T05:48:24;95073.69;;;4.22;68.50
8059;BME280;75058;42.668;23.396;2024-03-06T05:51:10;95074.03;;;4.19;68.67
8059;BME280;75058;42.668;23.396;2024-03-06T05:53:56;95086.50;;;4.09;69.04
8059;BME280;75058;42.668;23.396;2024-03-06T05:56:41;95091.00;;;4.22;68.73
8059;BME280;75058;42.668;23.396;2024-03-06T05:59:28;95090.03;;;4.65;67.55
8059;BME280;75058;42.668;23.396;2024-03-06T06:01:56;95087.28;;;4.73;67.28
8059;BME280;75058;42.668;23.396;2024-03-06T06:04:24;95090.69;;;4.10;69.00
8059;BME280;75058;42.668;23.396;2024-03-06T06:06:52;95090.69;;;4.10;69.02
8059;BME280;75058;42.668;23.396;2024-03-06T06:09:20;95092.66;;;4.08;69.41
8059;BME280;75058;42.668;23.396;2024-03-06T06:11:48;95093.84;;;4.69;67.42
8059;BME280;75058;42.668;23.396;2024-03-06T06:14:17;95098.22;;;4.90;66.40
8059;BME280;75058;42.668;23.396;2024-03-06T06:16:46;95092.66;;;4.72;66.37
8059;BME280;75058;42.668;23.396;2024-03-06T06:19:14;95085.09;;;4.49;67.79
8059;BME280;75058;42.668;23.396;2024-03-06T06:21:43;95094.34;;;4.16;68.51
8059;BME280;75058;42.668;23.396;2024-03-06T06:24:11;95079.53;;;4.52;68.44
8059;BME280;75058;42.668;23.396;2024-03-06T06:26:39;95098.97;;;4.62;67.96
8059;BME280;75058;42.668;23.396;2024-03-06T06:29:07;95089.47;;;4.97;67.33
8059;BME280;75058;42.668;23.396;2024-03-06T06:31:36;95084.72;;;4.31;68.52
8059;BME280;75058;42.668;23.396;2024-03-06T06:34:05;95098.22;;;4.68;68.44
8059;BME280;75058;42.668;23.396;2024-03-06T06:36:33;95094.91;;;4.75;67.55
8059;BME280;75058;42.668;23.396;2024-03-06T06:39:01;95070.97;;;5.00;66.54
8059;BME280;75058;42.668;23.396;2024-03-06T06:41:33;95086.97;;;4.83;66.90
8059;BME280;75058;42.668;23.396;2024-03-06T06:44:01;95089.22;;;5.20;67.66
8059;BME280;75058;42.668;23.396;2024-03-06T06:46:29;95092.25;;;5.58;66.05
8059;BME280;75058;42.668;23.396;2024-03-06T06:48:58;95089.41;;;5.87;64.80
8059;BME280;75058;42.668;23.396;2024-03-06T06:51:27;95091.41;;;5.85;64.15
8059;BME280;75058;42.668;23.396;2024-03-06T06:53:55;95093.25;;;5.97;63.80
8059;BME280;75058;42.668;23.396;2024-03-06T06:56:26;95103.66;;;5.63;65.42
8059;BME280;75058;42.668;23.396;2024-03-06T06:58:54;95101.63;;;5.93;64.50
8059;BME280;75058;42.668;23.396;2024-03-06T07:01:23;95108.69;;;5.71;65.77
8059;BME280;75058;42.668;23.396;2024-03-06T07:03:51;95102.50;;;5.72;66.07
8059;BME280;75058;42.668;23.396;2024-03-06T07:06:19;95107.16;;;5.83;64.96
8059;BME280;75058;42.668;23.396;2024-03-06T07:08:48;95110.44;;;5.58;65.46
8059;BME280;75058;42.668;23.396;2024-03-06T07:11:17;95091.91;;;5.33;66.03
8059;BME280;75058;42.668;23.396;2024-03-06T07:13:45;95099.53;;;5.41;66.04
8059;BME280;75058;42.668;23.396;2024-03-06T07:16:13;95100.56;;;5.81;65.64
8059;BME280;75058;42.668;23.396;2024-03-06T07:18:41;95096.41;;;5.86;65.41
8059;BME280;75058;42.668;23.396;2024-03-06T07:21:09;95102.25;;;5.61;65.30
8059;BME280;75058;42.668;23.396;2024-03-06T07:23:37;95098.72;;;5.34;67.40
8059;BME280;75058;42.668;23.396;2024-03-06T07:26:11;95098.03;;;5.94;65.60
8059;BME280;75058;42.668;23.396;2024-03-06T07:28:39;95094.34;;;5.34;66.58
8059;BME280;75058;42.668;23.396;2024-03-06T07:31:07;95096.69;;;5.02;67.70
8059;BME280;75058;42.668;23.396;2024-03-06T07:33:35;95097.53;;;5.36;67.37
8059;BME280;75058;42.668;23.396;2024-03-06T07:36:05;95103.25;;;5.94;66.18
8059;BME280;75058;42.668;23.396;2024-03-06T07:38:33;95102.03;;;5.56;66.84
8059;BME280;75058;42.668;23.396;2024-03-06T07:41:01;95097.81;;;5.55;66.80
8059;BME280;75058;42.668;23.396;2024-03-06T07:43:31;95097.50;;;5.30;67.54
8059;BME280;75058;42.668;23.396;2024-03-06T07:45:58;95095.47;;;5.60;66.79
8059;BME280;75058;42.668;23.396;2024-03-06T07:48:26;95099.13;;;5.78;66.36
8059;BME280;75058;42.668;23.396;2024-03-06T07:50:55;95098.09;;;5.66;66.21
8059;BME280;75058;42.668;23.396;2024-03-06T07:53:22;95106.41;;;6.56;63.70
8059;BME280;75058;42.668;23.396;2024-03-06T07:55:50;95097.63;;;7.16;62.77
8059;BME280;75058;42.668;23.396;2024-03-06T07:58:18;95102.84;;;6.90;62.13
8059;BME280;75058;42.668;23.396;2024-03-06T08:00:49;95091.78;;;7.27;62.00
8059;BME280;75058;42.668;23.396;2024-03-06T08:03:19;95095.19;;;7.34;61.26
8059;BME280;75058;42.668;23.396;2024-03-06T08:05:47;95099.41;;;6.63;62.47
8059;BME280;75058;42.668;23.396;2024-03-06T08:08:15;95103.03;;;6.62;63.07
8059;BME280;75058;42.668;23.396;2024-03-06T08:10:43;95103.00;;;7.34;62.05
8059;BME280;75058;42.668;23.396;2024-03-06T08:13:12;95104.03;;;6.81;63.16
8059;BME280;75058;42.668;23.396;2024-03-06T08:15:41;95096.63;;;7.04;62.72
8059;BME280;75058;42.668;23.396;2024-03-06T08:18:12;95095.22;;;7.15;62.13
8059;BME280;75058;42.668;23.396;2024-03-06T08:20:41;95101.81;;;7.17;61.76
8059;BME280;75058;42.668;23.396;2024-03-06T08:23:09;95098.03;;;6.93;62.33
8059;BME280;75058;42.668;23.396;2024-03-06T08:25:37;95091.38;;;7.56;61.65
8059;BME280;75058;42.668;23.396;2024-03-06T08:28:06;95092.72;;;8.61;58.63
8059;BME280;75058;42.668;23.396;2024-03-06T08:30:34;95084.06;;;8.67;57.94
8059;BME280;75058;42.668;23.396;2024-03-06T08:33:02;95087.19;;;9.06;56.58
8059;BME280;75058;42.668;23.396;2024-03-06T08:35:32;95086.63;;;9.47;56.03
8059;BME280;75058;42.668;23.396;2024-03-06T08:38:00;95079.84;;;9.40;55.29
8059;BME280;75058;42.668;23.396;2024-03-06T08:40:28;95080.94;;;9.32;55.76
8059;BME280;75058;42.668;23.396;2024-03-06T08:42:56;95078.56;;;9.06;56.36
8059;BME280;75058;42.668;23.396;2024-03-06T08:45:25;95086.94;;;8.83;57.57
8059;BME280;75058;42.668;23.396;2024-03-06T08:47:53;95087.97;;;9.07;56.37
8059;BME280;75058;42.668;23.396;2024-03-06T08:50:21;95086.16;;;8.83;57.56
8059;BME280;75058;42.668;23.396;2024-03-06T08:52:51;95082.50;;;9.15;56.37
8059;BME280;75058;42.668;23.396;2024-03-06T08:55:19;95083.59;;;8.45;58.71
8059;BME280;75058;42.668;23.396;2024-03-06T08:57:47;95072.97;;;8.46;58.74
8059;BME280;75058;42.668;23.396;2024-03-06T09:00:17;95081.31;;;8.62;58.47
8059;BME280;75058;42.668;23.396;2024-03-06T09:02:45;95079.63;;;8.42;59.13
8059;BME280;75058;42.668;23.396;2024-03-06T09:05:13;95079.50;;;8.87;58.59
8059;BME280;75058;42.668;23.396;2024-03-06T09:07:41;95081.53;;;9.09;57.75
8059;BME280;75058;42.668;23.396;2024-03-06T09:10:11;95079.56;;;9.05;57.00
8059;BME280;75058;42.668;23.396;2024-03-06T09:12:39;95086.47;;;9.17;56.61
8059;BME280;75058;42.668;23.396;2024-03-06T09:15:07;95088.66;;;8.71;56.69
8059;BME280;75058;42.668;23.396;2024-03-06T09:17:36;95083.94;;;9.11;56.77
8059;BME280;75058;42.668;23.396;2024-03-06T09:20:05;95079.59;;;9.23;56.23
8059;BME280;75058;42.668;23.396;2024-03-06T09:22:38;95074.41;;;9.77;54.92
8059;BME280;75058;42.668;23.396;2024-03-06T09:25:06;95080.66;;;9.40;55.36
8059;BME280;75058;42.668;23.396;2024-03-06T09:27:37;95080.88;;;9.57;55.34
8059;BME280;75058;42.668;23.396;2024-03-06T09:30:06;95072.25;;;10.70;53.66
8059;BME280;75058;42.668;23.396;2024-03-06T09:32:37;95081.34;;;10.38;53.06
8059;BME280;75058;42.668;23.396;2024-03-06T09:35:08;95073.19;;;10.87;52.68
8059;BME280;75058;42.668;23.396;2024-03-06T09:37:36;95065.84;;;9.52;55.20
8059;BME280;75058;42.668;23.396;2024-03-06T09:40:05;95066.59;;;9.95;53.86
8059;BME280;75058;42.668;23.396;2024-03-06T09:42:37;95069.41;;;10.30;53.06
8059;BME280;75058;42.668;23.396;2024-03-06T09:45:05;95066.28;;;10.51;53.35
8059;BME280;75058;42.668;23.396;2024-03-06T09:47:35;95057.31;;;11.58;50.41
8059;BME280;75058;42.668;23.396;2024-03-06T09:50:08;95049.47;;;11.12;50.62
8059;BME280;75058;42.668;23.396;2024-03-06T09:52:39;95047.28;;;11.43;50.57
8059;BME280;75058;42.668;23.396;2024-03-06T09:55:10;95048.75;;;11.74;48.53
8059;BME280;75058;42.668;23.396;2024-03-06T09:57:40;95052.19;;;11.63;48.79
8059;BME280;75058;42.668;23.396;2024-03-06T10:00:09;95039.31;;;12.13;48.16
8059;BME280;75058;42.668;23.396;2024-03-06T10:02:46;95036.31;;;12.49;46.86
8059;BME280;75058;42.668;23.396;2024-03-06T10:05:21;95047.91;;;11.97;47.94
8059;BME280;75058;42.668;23.396;2024-03-06T10:07:50;95030.00;;;12.33;47.32
8059;BME280;75058;42.668;23.396;2024-03-06T10:10:19;95015.84;;;12.06;46.44
8059;BME280;75058;42.668;23.396;2024-03-06T10:12:50;95027.03;;;12.75;45.82
8059;BME280;75058;42.668;23.396;2024-03-06T10:15:19;95027.22;;;13.35;44.54
8059;BME280;75058;42.668;23.396;2024-03-06T10:17:48;95032.16;;;13.31;44.56
8059;BME280;75058;42.668;23.396;2024-03-06T10:20:20;95010.81;;;12.94;45.32
8059;BME280;75058;42.668;23.396;2024-03-06T10:22:51;95018.44;;;13.46;44.63
8059;BME280;75058;42.668;23.396;2024-03-06T10:25:24;95005.16;;;11.96;47.05
8059;BME280;75058;42.668;23.396;2024-03-06T10:28:10;95009.25;;;11.41;48.83
8059;BME280;75058;42.668;23.396;2024-03-06T10:30:40;95011.78;;;12.27;47.75
8059;BME280;75058;42.668;23.396;2024-03-06T10:33:10;95003.91;;;12.88;44.79
8059;BME280;75058;42.668;23.396;2024-03-06T10:35:40;95006.03;;;13.41;43.79
8059;BME280;75058;42.668;23.396;2024-03-06T10:38:09;95005.25;;;13.41;43.61
8059;BME280;75058;42.668;23.396;2024-03-06T10:40:39;94997.25;;;13.96;42.03
8059;BME280;75058;42.668;23.396;2024-03-06T10:43:10;94997.69;;;14.09;41.63
8059;BME280;75058;42.668;23.396;2024-03-06T10:45:41;94994.81;;;14.11;41.11
8059;BME280;75058;42.668;23.396;2024-03-06T10:48:14;94983.56;;;13.72;42.10
8059;BME280;75058;42.668;23.396;2024-03-06T10:50:45;94977.34;;;14.26;41.45
8059;BME280;75058;42.668;23.396;2024-03-06T10:53:15;94979.97;;;14.26;40.91
8059;BME280;75058;42.668;23.396;2024-03-06T10:55:50;94968.97;;;14.08;41.52
8059;BME280;75058;42.668;23.396;2024-03-06T10:58:20;94970.47;;;14.25;41.44
8059;BME280;75058;42.668;23.396;2024-03-06T11:00:48;94963.25;;;13.07;42.18
8059;BME280;75058;42.668;23.396;2024-03-06T11:03:18;94966.59;;;13.41;41.17
8059;BME280;75058;42.668;23.396;2024-03-06T11:05:46;94953.69;;;13.01;42.57
8059;BME280;75058;42.668;23.396;2024-03-06T11:08:18;94959.06;;;13.28;42.60
8059;BME280;75058;42.668;23.396;2024-03-06T11:10:47;94932.91;;;12.83;42.90
8059;BME280;75058;42.668;23.396;2024-03-06T11:13:23;94948.19;;;13.03;43.06
8059;BME280;75058;42.668;23.396;2024-03-06T11:15:57;94937.44;;;13.64;41.29
8059;BME280;75058;42.668;23.396;2024-03-06T11:18:41;94930.72;;;14.22;40.44
8059;BME280;75058;42.668;23.396;2024-03-06T11:21:45;94929.56;;;14.39;40.32
8059;BME280;75058;42.668;23.396;2024-03-06T11:24:21;94916.22;;;14.78;38.87
8059;BME280;75058;42.668;23.396;2024-03-06T11:26:54;94914.66;;;14.82;38.92
8059;BME280;75058;42.668;23.396;2024-03-06T11:29:27;94916.94;;;14.41;39.61
8059;BME280;75058;42.668;23.396;2024-03-06T11:32:06;94920.09;;;13.42;41.66
8059;BME280;75058;42.668;23.396;2024-03-06T11:34:36;94882.81;;;13.23;41.47
8059;BME280;75058;42.668;23.396;2024-03-06T11:37:06;94913.97;;;12.98;41.78
8059;BME280;75058;42.668;23.396;2024-03-06T11:39:37;94911.59;;;14.05;38.96
8059;BME280;75058;42.668;23.396;2024-03-06T11:42:07;94905.16;;;14.81;37.42
8059;BME280;75058;42.668;23.396;2024-03-06T11:44:52;94893.34;;;14.51;37.95
8059;BME280;75058;42.668;23.396;2024-03-06T11:47:21;94913.72;;;14.08;39.47
8059;BME280;75058;42.668;23.396;2024-03-06T11:49:49;94903.69;;;14.58;38.77
8059;BME280;75058;42.668;23.396;2024-03-06T11:52:17;94907.53;;;13.92;39.50
8059;BME280;75058;42.668;23.396;2024-03-06T11:54:46;94901.44;;;13.65;38.00
8059;BME280;75058;42.668;23.396;2024-03-06T11:57:13;94906.94;;;13.63;38.70
8059;BME280;75058;42.668;23.396;2024-03-06T11:59:44;94904.50;;;13.35;39.03
8059;BME280;75058;42.668;23.396;2024-03-06T12:02:13;94905.22;;;13.31;38.93
8059;BME280;75058;42.668;23.396;2024-03-06T12:04:41;94896.44;;;13.42;38.50
8059;BME280;75058;42.668;23.396;2024-03-06T12:07:09;94887.72;;;14.38;37.76
8059;BME280;75058;42.668;23.396;2024-03-06T12:09:38;94889.25;;;14.07;37.63
8059;BME280;75058;42.668;23.396;2024-03-06T12:12:10;94881.91;;;14.09;38.40
8059;BME280;75058;42.668;23.396;2024-03-06T12:14:39;94889.53;;;14.32;38.84
8059;BME280;75058;42.668;23.396;2024-03-06T12:17:13;94883.84;;;13.44;39.78
8059;BME280;75058;42.668;23.396;2024-03-06T12:19:42;94886.97;;;13.41;40.08
8059;BME280;75058;42.668;23.396;2024-03-06T12:22:12;94865.88;;;13.36;39.90
8059;BME280;75058;42.668;23.396;2024-03-06T12:24:41;94891.13;;;13.15;40.44
8059;BME280;75058;42.668;23.396;2024-03-06T12:27:09;94876.94;;;13.16;40.18
8059;BME280;75058;42.668;23.396;2024-03-06T12:29:39;94881.84;;;13.29;39.61
8059;BME280;75058;42.668;23.396;2024-03-06T12:32:17;94879.50;;;13.33;39.83
8059;BME280;75058;42.668;23.396;2024-03-06T12:34:56;94878.09;;;13.25;40.01
8059;BME280;75058;42.668;23.396;2024-03-06T12:37:30;94882.13;;;13.33;40.12
8059;BME280;75058;42.668;23.396;2024-03-06T12:39:59;94876.00;;;13.05;40.33
8059;BME280;75058;42.668;23.396;2024-03-06T12:42:27;94878.72;;;12.94;43.35
8059;BME280;75058;42.668;23.396;2024-03-06T12:44:56;94871.69;;;11.95;47.50
8059;BME280;75058;42.668;23.396;2024-03-06T12:47:25;94876.28;;;12.04;48.21
8059;BME280;75058;42.668;23.396;2024-03-06T12:49:53;94878.72;;;12.22;46.64
8059;BME280;75058;42.668;23.396;2024-03-06T12:52:21;94878.22;;;12.09;47.20
8059;BME280;75058;42.668;23.396;2024-03-06T12:54:48;94879.25;;;12.24;47.66
8059;BME280;75058;42.668;23.396;2024-03-06T12:57:17;94878.56;;;12.12;47.43
8059;BME280;75058;42.668;23.396;2024-03-06T12:59:45;94871.25;;;12.14;47.76
8059;BME280;75058;42.668;23.396;2024-03-06T13:02:13;94882.03;;;12.18;48.00
8059;BME280;75058;42.668;23.396;2024-03-06T13:04:42;94863.78;;;12.23;46.56
8059;BME280;75058;42.668;23.396;2024-03-06T13:07:11;94876.22;;;12.49;45.68
8059;BME280;75058;42.668;23.396;2024-03-06T13:09:39;94882.13;;;12.56;46.00
8059;BME280;75058;42.668;23.396;2024-03-06T13:12:07;94885.44;;;12.68;46.18
8059;BME280;75058;42.668;23.396;2024-03-06T13:14:36;94881.38;;;12.77;45.61
8059;BME280;75058;42.668;23.396;2024-03-06T13:17:04;94869.00;;;12.39;45.94
8059;BME280;75058;42.668;23.396;2024-03-06T13:19:33;94883.56;;;12.64;45.33
8059;BME280;75058;42.668;23.396;2024-03-06T13:22:02;94878.84;;;12.49;45.55
8059;BME280;75058;42.668;23.396;2024-03-06T13:24:34;94877.84;;;12.33;46.95